Main page
METAR-TAF:

METAR-TAF

Airports :

Al-Hasa, Saudi Arabia

Al-Ahsa International Airport

latitude: 25-18N, longitude: 049-29E, elevation: 179 m

Current weather observation

The report was made 41 minutes ago, at 03:00 UTC
Wind 10 kt from the West/Northwest
Temperature 29°C
Humidity 16%
Pressure 1010 hPa
Visibility: 7000 m

METAR: OEAH 290300Z 29010KT 7000 NSC 29/01 Q1010 NOSIG

Time: 06:41 (03:41 UTC)

Forecast

The report was made 4 hours and 41 minutes ago, at 23:00 UTC
Forecast valid from 29 at 00 UTC to 30 at 06 UTC
Wind 3 kt from variable directions
Visibility 10 km or more
Few clouds at a height of 4000 ft
Becoming
from 29 at 06 UTC to 29 at 08 UTC
Wind 12 kt from the East/Southeast

TAF: OEAH 282300Z 2900/3006 VRB03KT 9999 FEW040 BECMG 2906/2908 11012KT

Weather observations and forecasts of more than 4000 airports (METAR and TAF reports).

The available stations are represented by yellow and red dots on the map.

Hover mouse over dot to see the name of the station.

Then click to see weather observations and forecasts.

To change the map : click on the green buttons with a black cross to zoom in, on the green button with a dash to zoom out, or on the green arrows for adjacent maps.


METAR-TAF: